createdAt,value
2018-01-10T00:00:26.190Z,7.70
2018-01-10T00:01:31.560Z,7.60
2018-01-10T00:02:36.205Z,7.60
2018-01-10T00:03:40.776Z,7.60
2018-01-10T00:04:45.404Z,7.60
2018-01-10T00:05:51.337Z,7.60
2018-01-10T00:06:55.905Z,7.60
2018-01-10T00:08:01.481Z,7.70
2018-01-10T00:09:06.408Z,7.70
2018-01-10T00:10:11.047Z,7.70
2018-01-10T00:11:15.721Z,7.70
2018-01-10T00:12:20.327Z,7.70
2018-01-10T00:13:25.010Z,7.70
2018-01-10T00:14:29.615Z,7.70
2018-01-10T00:15:34.201Z,7.70
2018-01-10T00:16:39.004Z,7.70
2018-01-10T00:17:43.954Z,7.80
2018-01-10T00:18:48.589Z,7.80
2018-01-10T00:19:53.184Z,7.80
2018-01-10T00:20:57.712Z,7.80
2018-01-10T00:22:02.296Z,7.80
2018-01-10T00:23:06.875Z,7.80
2018-01-10T00:24:12.417Z,7.80
2018-01-10T00:25:17.130Z,7.80
2018-01-10T00:26:22.508Z,7.80
2018-01-10T00:27:27.079Z,7.80
2018-01-10T00:28:31.634Z,7.90
2018-01-10T00:29:36.524Z,7.80
2018-01-10T00:30:41.104Z,7.80
2018-01-10T00:31:45.649Z,7.80
2018-01-10T00:32:50.349Z,7.80
2018-01-10T00:33:55.783Z,7.80
2018-01-10T00:35:01.133Z,7.80
2018-01-10T00:36:06.088Z,7.70
2018-01-10T00:37:10.982Z,7.80
2018-01-10T00:38:15.582Z,7.80
2018-01-10T00:39:20.202Z,7.80
2018-01-10T00:40:25.669Z,7.80
2018-01-10T00:41:30.433Z,7.80
2018-01-10T00:42:35.824Z,7.80
2018-01-10T00:43:40.507Z,7.80
2018-01-10T00:44:45.107Z,7.80
2018-01-10T00:45:49.777Z,7.80
2018-01-10T00:46:54.673Z,7.80
2018-01-10T00:47:59.518Z,7.80
2018-01-10T00:49:04.569Z,7.80
2018-01-10T00:50:10.329Z,7.80
2018-01-10T00:51:15.658Z,7.80
2018-01-10T00:52:20.962Z,7.70
2018-01-10T00:53:25.547Z,7.70
2018-01-10T00:54:30.137Z,7.70
2018-01-10T00:55:34.757Z,7.70
2018-01-10T00:56:39.394Z,7.70
2018-01-10T00:57:44.313Z,7.70
2018-01-10T00:58:48.930Z,7.70
2018-01-10T00:59:53.498Z,7.70
2018-01-10T01:00:58.336Z,7.70
2018-01-10T01:02:02.949Z,7.70
2018-01-10T01:03:07.519Z,7.70
2018-01-10T01:04:12.366Z,7.70
2018-01-10T01:05:17.362Z,7.70
2018-01-10T01:06:22.713Z,7.70
2018-01-10T01:07:28.090Z,7.60
2018-01-10T01:08:32.710Z,7.60
2018-01-10T01:09:37.412Z,7.60
2018-01-10T01:10:42.268Z,7.60
2018-01-10T01:11:46.861Z,7.60
2018-01-10T01:12:51.424Z,7.60
2018-01-10T01:13:56.832Z,7.60
2018-01-10T01:15:01.450Z,7.60
2018-01-10T01:16:07.729Z,7.60
2018-01-10T01:17:12.314Z,7.60
2018-01-10T01:18:16.885Z,7.60
2018-01-10T01:19:21.468Z,7.60
2018-01-10T01:20:26.289Z,7.60
2018-01-10T01:21:30.912Z,7.60
2018-01-10T01:22:35.463Z,7.70
2018-01-10T01:23:40.103Z,7.70
2018-01-10T01:24:45.945Z,7.70
2018-01-10T01:25:50.484Z,7.70
2018-01-10T01:26:55.028Z,7.70
2018-01-10T01:28:00.499Z,7.70
2018-01-10T01:29:05.156Z,7.70
2018-01-10T01:30:09.791Z,7.70
2018-01-10T01:32:49.206Z,7.70
2018-01-10T01:33:53.883Z,7.70
2018-01-10T01:34:58.927Z,7.70
2018-01-10T01:36:04.280Z,7.70
2018-01-10T01:37:08.844Z,7.70
2018-01-10T01:38:13.621Z,7.70
2018-01-10T01:39:18.218Z,7.70
2018-01-10T01:40:23.076Z,7.70
2018-01-10T01:41:27.644Z,7.70
2018-01-10T01:42:32.995Z,7.70
2018-01-10T01:43:37.581Z,7.60
2018-01-10T01:44:43.100Z,7.70
2018-01-10T01:45:47.992Z,7.70
2018-01-10T01:46:52.593Z,7.70
2018-01-10T01:47:57.200Z,7.70
2018-01-10T01:49:01.812Z,7.70
2018-01-10T01:50:06.933Z,7.70
2018-01-10T01:51:11.735Z,7.70
2018-01-10T01:52:17.457Z,7.70
2018-01-10T01:53:23.056Z,7.70
2018-01-10T01:54:27.643Z,7.70
2018-01-10T01:55:34.394Z,7.70
2018-01-10T01:56:39.459Z,7.70
2018-01-10T01:57:44.157Z,7.80
2018-01-10T01:58:48.748Z,7.70
2018-01-10T01:59:53.444Z,7.70
2018-01-10T02:00:58.061Z,7.80
2018-01-10T02:02:03.969Z,7.70
2018-01-10T02:03:08.622Z,7.70
2018-01-10T02:04:14.205Z,7.80
2018-01-10T02:05:18.855Z,7.70
2018-01-10T02:06:23.428Z,7.80
2018-01-10T02:07:28.272Z,7.80
2018-01-10T02:08:33.134Z,7.80
2018-01-10T02:09:38.732Z,7.90
2018-01-10T02:10:43.715Z,7.90
2018-01-10T02:11:48.785Z,7.90
2018-01-10T02:12:53.399Z,7.90
2018-01-10T02:13:57.997Z,7.90
2018-01-10T02:15:02.557Z,7.90
2018-01-10T02:16:07.904Z,7.90
2018-01-10T02:17:12.512Z,7.90
2018-01-10T02:18:18.252Z,7.90
2018-01-10T02:19:22.863Z,7.90
2018-01-10T02:20:28.232Z,8.00
2018-01-10T02:21:32.816Z,8.00
2018-01-10T02:22:38.535Z,8.00
2018-01-10T02:23:44.057Z,8.00
2018-01-10T02:24:48.688Z,8.00
2018-01-10T02:25:54.030Z,8.10
2018-01-10T02:26:59.398Z,8.10
2018-01-10T02:28:03.988Z,8.10
2018-01-10T02:29:08.727Z,8.10
2018-01-10T02:30:13.806Z,8.10
2018-01-10T02:31:19.447Z,8.10
2018-01-10T02:32:25.264Z,8.10
2018-01-10T02:33:29.844Z,8.10
2018-01-10T02:34:34.439Z,8.10
2018-01-10T02:35:38.980Z,8.10
2018-01-10T02:36:43.853Z,8.20
2018-01-10T02:37:49.197Z,8.20
2018-01-10T02:38:54.160Z,8.20
2018-01-10T02:39:59.078Z,8.20
2018-01-10T02:41:03.614Z,8.20
2018-01-10T02:42:08.361Z,8.20
2018-01-10T02:43:13.817Z,8.20
2018-01-10T02:44:19.177Z,8.20
2018-01-10T02:45:23.762Z,8.20
2018-01-10T02:46:28.679Z,8.20
2018-01-10T02:47:33.284Z,8.30
2018-01-10T02:48:38.454Z,8.30
2018-01-10T02:49:43.292Z,8.30
2018-01-10T02:50:47.885Z,8.30
2018-01-10T02:51:52.461Z,8.30
2018-01-10T02:52:57.774Z,8.30
2018-01-10T02:54:03.426Z,8.20
2018-01-10T02:55:08.088Z,8.20
2018-01-10T02:56:12.758Z,8.30
2018-01-10T02:57:17.371Z,8.30
2018-01-10T02:58:22.754Z,8.30
2018-01-10T02:59:27.363Z,8.30
2018-01-10T03:00:31.949Z,8.30
2018-01-10T03:01:36.491Z,8.30
2018-01-10T03:02:41.198Z,8.30
2018-01-10T03:03:45.794Z,8.20
2018-01-10T03:04:50.440Z,8.20
2018-01-10T03:05:55.044Z,8.20
2018-01-10T03:06:59.600Z,8.30
2018-01-10T03:08:04.985Z,8.30
2018-01-10T03:09:09.589Z,8.30
2018-01-10T03:10:14.186Z,8.30
2018-01-10T03:11:18.728Z,8.30
2018-01-10T03:12:23.341Z,8.30
2018-01-10T03:13:27.961Z,8.20
2018-01-10T03:14:32.526Z,8.20
2018-01-10T03:15:37.982Z,8.20
2018-01-10T03:16:42.575Z,8.20
2018-01-10T03:17:48.116Z,8.20
2018-01-10T03:18:52.653Z,8.20
2018-01-10T03:19:57.248Z,8.30
2018-01-10T03:21:01.853Z,8.20
2018-01-10T03:22:07.839Z,8.30
2018-01-10T03:23:12.866Z,8.20
2018-01-10T03:24:18.069Z,8.30
2018-01-10T03:25:22.957Z,8.30
2018-01-10T03:26:28.293Z,8.30
2018-01-10T03:27:33.604Z,8.20
2018-01-10T03:28:38.230Z,8.20
2018-01-10T03:29:43.562Z,8.20
2018-01-10T03:30:49.318Z,8.20
2018-01-10T03:31:53.905Z,8.20
2018-01-10T03:32:58.436Z,8.30
2018-01-10T03:34:03.789Z,8.20
2018-01-10T03:35:08.521Z,8.20
2018-01-10T03:36:13.292Z,8.20
2018-01-10T03:37:18.925Z,8.20
2018-01-10T03:38:23.549Z,8.20
2018-01-10T03:39:29.039Z,8.20
2018-01-10T03:40:33.637Z,8.20
2018-01-10T03:41:38.238Z,8.30
2018-01-10T03:42:42.856Z,8.20
2018-01-10T03:43:47.849Z,8.20
2018-01-10T03:44:52.477Z,8.20
2018-01-10T03:45:58.200Z,8.20
2018-01-10T03:47:04.877Z,8.20
2018-01-10T03:48:10.492Z,8.20
2018-01-10T03:49:15.118Z,8.20
2018-01-10T03:50:20.968Z,8.20
2018-01-10T03:51:26.482Z,8.20
2018-01-10T03:52:31.358Z,8.20
2018-01-10T03:53:36.268Z,8.20
2018-01-10T03:54:40.961Z,8.30
2018-01-10T03:55:46.371Z,8.30
2018-01-10T03:56:51.270Z,8.20
2018-01-10T03:57:56.064Z,8.30
2018-01-10T03:59:00.625Z,8.30
2018-01-10T04:00:07.073Z,8.30
2018-01-10T04:01:12.312Z,8.30
2018-01-10T04:02:16.891Z,8.30
2018-01-10T04:03:21.893Z,8.30
2018-01-10T04:04:26.557Z,8.30
2018-01-10T04:05:31.268Z,8.30
2018-01-10T04:06:36.170Z,8.30
2018-01-10T04:07:41.597Z,8.30
2018-01-10T04:08:46.195Z,8.30
2018-01-10T04:09:50.784Z,8.30
2018-01-10T04:10:56.210Z,8.30
2018-01-10T04:12:00.783Z,8.30
2018-01-10T04:13:05.849Z,8.30
2018-01-10T04:14:11.444Z,8.40
2018-01-10T04:15:16.384Z,8.30
2018-01-10T04:16:21.490Z,8.40
2018-01-10T04:17:26.065Z,8.40
2018-01-10T04:18:31.048Z,8.30
2018-01-10T04:19:35.764Z,8.30
2018-01-10T04:20:40.429Z,8.20
2018-01-10T04:21:44.977Z,8.20
2018-01-10T04:22:49.885Z,8.20
2018-01-10T04:23:55.079Z,8.30
2018-01-10T04:25:00.396Z,8.20
2018-01-10T04:26:05.759Z,8.30
2018-01-10T04:27:10.383Z,8.30
2018-01-10T04:28:14.958Z,8.30
2018-01-10T04:29:20.547Z,8.30
2018-01-10T04:30:25.129Z,8.30
2018-01-10T04:31:29.843Z,8.30
2018-01-10T04:32:35.260Z,8.30
2018-01-10T04:33:40.650Z,8.30
2018-01-10T04:34:45.447Z,8.30
2018-01-10T04:35:50.120Z,8.30
2018-01-10T04:36:54.730Z,8.30
2018-01-10T04:37:59.312Z,8.30
2018-01-10T04:39:04.065Z,8.30
2018-01-10T04:40:08.685Z,8.30
2018-01-10T04:41:14.136Z,8.40
2018-01-10T04:42:18.760Z,8.30
2018-01-10T04:43:23.853Z,8.40
2018-01-10T04:44:28.820Z,8.30
2018-01-10T04:45:33.678Z,8.40
2018-01-10T04:46:38.374Z,8.30
2018-01-10T04:47:42.991Z,8.30
2018-01-10T04:48:48.058Z,8.40
2018-01-10T04:49:53.388Z,8.40
2018-01-10T04:50:58.861Z,8.40
2018-01-10T04:52:03.482Z,8.40
2018-01-10T04:53:08.085Z,8.40
2018-01-10T04:54:12.842Z,8.30
2018-01-10T04:55:17.613Z,8.30
2018-01-10T04:56:22.265Z,8.40
2018-01-10T04:57:26.976Z,8.40
2018-01-10T04:58:31.541Z,8.40
2018-01-10T04:59:36.903Z,8.40
2018-01-10T05:00:41.597Z,8.30
2018-01-10T05:01:46.184Z,8.30
2018-01-10T05:02:51.736Z,8.30
2018-01-10T05:03:57.065Z,8.40
2018-01-10T05:05:01.653Z,8.30
2018-01-10T05:06:06.863Z,8.30
2018-01-10T05:07:11.426Z,8.40
2018-01-10T05:08:16.856Z,8.40
2018-01-10T05:09:22.424Z,8.40
2018-01-10T05:10:27.076Z,8.40
2018-01-10T05:11:31.991Z,8.40
2018-01-10T05:12:36.756Z,8.40
2018-01-10T05:13:41.437Z,8.40
2018-01-10T05:14:46.237Z,8.40
2018-01-10T05:15:50.880Z,8.40
2018-01-10T05:16:55.574Z,8.40
2018-01-10T05:18:00.463Z,8.40
2018-01-10T05:19:05.145Z,8.40
2018-01-10T05:20:09.857Z,8.40
2018-01-10T05:21:15.491Z,8.30
2018-01-10T05:22:20.217Z,8.30
2018-01-10T05:23:25.594Z,8.30
2018-01-10T05:24:30.997Z,8.30
2018-01-10T05:25:35.636Z,8.30
2018-01-10T05:26:40.263Z,8.30
2018-01-10T05:27:44.875Z,8.30
2018-01-10T05:28:49.421Z,8.30
2018-01-10T05:29:54.203Z,8.30
2018-01-10T05:30:58.869Z,8.30
2018-01-10T05:32:04.195Z,8.40
2018-01-10T05:33:09.551Z,8.40
2018-01-10T05:34:14.200Z,8.40
2018-01-10T05:35:19.373Z,8.30
2018-01-10T05:36:25.024Z,8.30
2018-01-10T05:37:30.349Z,8.30
2018-01-10T05:38:35.692Z,8.30
2018-01-10T05:39:40.253Z,8.30
2018-01-10T05:40:44.993Z,8.30
2018-01-10T05:41:49.790Z,8.30
2018-01-10T05:42:54.425Z,8.30
2018-01-10T05:43:59.221Z,8.30
2018-01-10T05:45:03.935Z,8.30
2018-01-10T05:46:08.898Z,8.30
2018-01-10T05:47:14.406Z,8.30
2018-01-10T05:48:19.291Z,8.30
2018-01-10T05:49:23.989Z,8.40
2018-01-10T05:50:28.600Z,8.40
2018-01-10T05:51:33.762Z,8.40
2018-01-10T05:52:38.317Z,8.40
2018-01-10T05:53:43.684Z,8.40
2018-01-10T05:54:48.404Z,8.40
2018-01-10T05:55:52.942Z,8.40
2018-01-10T05:56:57.529Z,8.40
2018-01-10T05:58:02.089Z,8.40
2018-01-10T05:59:06.768Z,8.40
2018-01-10T06:00:11.808Z,8.40
2018-01-10T06:02:33.884Z,8.40
2018-01-10T06:03:39.418Z,8.40
2018-01-10T06:04:45.432Z,8.40
2018-01-10T06:05:50.026Z,8.40
2018-01-10T06:06:54.636Z,8.40
2018-01-10T06:07:59.650Z,8.40
2018-01-10T06:09:04.386Z,8.40
2018-01-10T06:10:09.149Z,8.30
2018-01-10T06:11:14.621Z,8.30
2018-01-10T06:12:19.522Z,8.30
2018-01-10T06:13:24.827Z,8.30
2018-01-10T06:14:29.539Z,8.30
2018-01-10T06:15:35.202Z,8.30
2018-01-10T06:16:40.609Z,8.30
2018-01-10T06:17:45.952Z,8.30
2018-01-10T06:18:51.834Z,8.30
2018-01-10T06:19:56.417Z,8.30
2018-01-10T06:21:01.808Z,8.40
2018-01-10T06:22:06.528Z,8.40
2018-01-10T06:23:11.111Z,8.40
2018-01-10T06:24:15.733Z,8.40
2018-01-10T06:25:20.301Z,8.40
2018-01-10T06:26:25.732Z,8.40
2018-01-10T06:27:31.093Z,8.40
2018-01-10T06:28:35.743Z,8.40
2018-01-10T06:29:41.165Z,8.40
2018-01-10T06:30:46.184Z,8.40
2018-01-10T06:31:50.834Z,8.40
2018-01-10T06:32:55.545Z,8.50
2018-01-10T06:34:00.119Z,8.50
2018-01-10T06:35:04.735Z,8.50
2018-01-10T06:36:09.381Z,8.50
2018-01-10T06:37:13.953Z,8.50
2018-01-10T06:38:18.573Z,8.50
2018-01-10T06:39:23.184Z,8.40
2018-01-10T06:40:27.782Z,8.50
2018-01-10T06:41:34.232Z,8.50
2018-01-10T06:42:39.593Z,8.40
2018-01-10T06:43:44.204Z,8.40
2018-01-10T06:44:48.778Z,8.40
2018-01-10T06:45:54.136Z,8.40
2018-01-10T06:46:58.753Z,8.40
2018-01-10T06:48:04.532Z,8.30
2018-01-10T06:49:09.795Z,8.30
2018-01-10T06:50:14.505Z,8.30
2018-01-10T06:51:19.523Z,8.30
2018-01-10T06:52:24.173Z,8.20
2018-01-10T06:53:29.788Z,8.30
2018-01-10T06:54:35.390Z,8.30
2018-01-10T06:55:40.091Z,8.30
2018-01-10T06:56:44.798Z,8.30
2018-01-10T06:57:49.454Z,8.30
2018-01-10T06:58:54.621Z,8.30
2018-01-10T07:00:00.323Z,8.20
2018-01-10T07:01:05.135Z,8.20
2018-01-10T07:02:09.769Z,8.20
2018-01-10T07:03:15.121Z,8.30
2018-01-10T07:04:20.587Z,8.30
2018-01-10T07:05:25.289Z,8.30
2018-01-10T07:06:30.091Z,8.30
2018-01-10T07:07:34.822Z,8.30
2018-01-10T07:08:40.107Z,8.30
2018-01-10T07:09:44.769Z,8.30
2018-01-10T07:10:49.423Z,8.30
2018-01-10T07:11:54.348Z,8.30
2018-01-10T07:12:58.941Z,8.30
2018-01-10T07:14:03.591Z,8.30
2018-01-10T07:15:08.220Z,8.30
2018-01-10T07:16:14.446Z,8.30
2018-01-10T07:17:19.279Z,8.20
2018-01-10T07:18:23.861Z,8.30
2018-01-10T07:19:28.510Z,8.30
2018-01-10T07:20:33.092Z,8.30
2018-01-10T07:21:37.733Z,8.30
2018-01-10T07:22:42.479Z,8.30
2018-01-10T07:23:48.073Z,8.30
2018-01-10T07:24:52.662Z,8.30
2018-01-10T07:25:57.857Z,8.30
2018-01-10T07:27:04.343Z,8.30
2018-01-10T07:28:08.997Z,8.30
2018-01-10T07:29:13.792Z,8.20
2018-01-10T07:30:18.354Z,8.10
2018-01-10T07:31:23.761Z,8.20
2018-01-10T07:32:28.682Z,8.20
2018-01-10T07:33:33.315Z,8.20
2018-01-10T07:34:39.491Z,8.20
2018-01-10T07:35:44.889Z,8.20
2018-01-10T07:36:49.598Z,8.20
2018-01-10T07:37:54.311Z,8.20
2018-01-10T07:38:59.032Z,8.20
2018-01-10T07:40:03.653Z,8.20
2018-01-10T07:41:08.299Z,8.20
2018-01-10T07:42:13.714Z,8.30
2018-01-10T07:43:18.298Z,8.30
2018-01-10T07:44:22.904Z,8.30
2018-01-10T07:45:27.497Z,8.30
2018-01-10T07:46:32.098Z,8.30
2018-01-10T07:47:37.456Z,8.30
2018-01-10T07:48:42.090Z,8.20
2018-01-10T07:49:47.307Z,8.30
2018-01-10T07:50:51.915Z,8.30
2018-01-10T07:51:56.548Z,8.30
2018-01-10T07:53:01.277Z,8.30
2018-01-10T07:54:07.753Z,8.30
2018-01-10T07:55:13.340Z,8.30
2018-01-10T07:56:18.105Z,8.30
2018-01-10T07:57:22.869Z,8.30
2018-01-10T07:58:27.570Z,8.30
2018-01-10T07:59:32.908Z,8.30
2018-01-10T08:00:38.956Z,8.30
2018-01-10T08:01:43.756Z,8.30
2018-01-10T08:02:49.266Z,8.30
2018-01-10T08:03:54.163Z,8.30
2018-01-10T08:04:58.925Z,8.30
2018-01-10T08:06:05.508Z,8.30
2018-01-10T08:07:11.266Z,8.30
2018-01-10T08:08:17.162Z,8.40
2018-01-10T08:09:22.918Z,8.40
2018-01-10T08:10:27.931Z,8.40
2018-01-10T08:11:33.340Z,8.40
2018-01-10T08:12:39.033Z,8.40
2018-01-10T08:13:43.853Z,8.40
2018-01-10T08:14:48.631Z,8.40
2018-01-10T08:15:54.081Z,8.40
2018-01-10T08:16:59.782Z,8.40
2018-01-10T08:18:04.466Z,8.40
2018-01-10T08:19:09.345Z,8.40
2018-01-10T08:20:14.695Z,8.40
2018-01-10T08:21:23.628Z,8.40
2018-01-10T08:22:28.343Z,8.40
2018-01-10T08:23:33.376Z,8.40
2018-01-10T08:24:38.121Z,8.40
2018-01-10T08:25:43.068Z,8.50
2018-01-10T08:26:49.043Z,8.50
2018-01-10T08:27:54.212Z,8.50
2018-01-10T08:28:58.867Z,8.50
2018-01-10T08:30:04.467Z,8.50
2018-01-10T08:31:10.197Z,8.50
2018-01-10T08:32:14.808Z,8.50
2018-01-10T08:33:19.826Z,8.50
2018-01-10T08:34:24.431Z,8.50
2018-01-10T08:35:30.123Z,8.50
2018-01-10T08:36:34.859Z,8.50
2018-01-10T08:37:39.430Z,8.50
2018-01-10T08:38:44.709Z,8.50
2018-01-10T08:39:49.515Z,8.50
2018-01-10T08:40:55.474Z,8.50
2018-01-10T08:42:00.047Z,8.50
2018-01-10T08:43:05.408Z,8.50
2018-01-10T08:44:10.833Z,8.60
2018-01-10T08:45:16.431Z,8.60
2018-01-10T08:46:21.127Z,8.60
2018-01-10T08:47:25.704Z,8.60
2018-01-10T08:48:31.054Z,8.60
2018-01-10T08:49:36.613Z,8.50
2018-01-10T08:50:41.331Z,8.60
2018-01-10T08:51:45.975Z,8.60
2018-01-10T08:52:50.633Z,8.60
2018-01-10T08:53:56.568Z,8.60
2018-01-10T08:55:02.005Z,8.70
2018-01-10T08:56:07.756Z,8.70
2018-01-10T08:57:13.233Z,8.70
2018-01-10T08:58:17.906Z,8.70
2018-01-10T08:59:22.886Z,8.70
2018-01-10T09:00:27.532Z,8.80
2018-01-10T09:01:33.208Z,8.80
2018-01-10T09:02:37.849Z,8.80
2018-01-10T09:03:42.443Z,8.80
2018-01-10T09:04:47.236Z,8.80
2018-01-10T09:05:51.834Z,8.90
2018-01-10T09:06:57.188Z,8.90
2018-01-10T09:08:01.850Z,8.90
2018-01-10T09:09:06.784Z,8.90
2018-01-10T09:10:11.542Z,8.90
2018-01-10T09:11:16.940Z,8.90
2018-01-10T09:12:21.889Z,8.90
2018-01-10T09:13:26.473Z,9.00
2018-01-10T09:14:31.222Z,9.00
2018-01-10T09:15:36.061Z,9.00
2018-01-10T09:16:40.669Z,8.90
2018-01-10T09:17:45.298Z,9.00
2018-01-10T09:18:49.908Z,9.00
2018-01-10T09:19:54.506Z,9.10
2018-01-10T09:20:59.432Z,9.10
2018-01-10T09:22:04.029Z,9.10
2018-01-10T09:23:08.764Z,9.10
2018-01-10T09:24:13.424Z,9.20
2018-01-10T09:25:18.445Z,9.20
2018-01-10T09:26:23.018Z,9.30
2018-01-10T09:27:27.674Z,9.30
2018-01-10T09:28:32.311Z,9.40
2018-01-10T09:29:38.028Z,9.40
2018-01-10T09:30:42.706Z,9.40
2018-01-10T09:31:47.464Z,9.40
2018-01-10T09:32:52.093Z,9.40
2018-01-10T09:33:56.658Z,9.40
2018-01-10T09:35:01.260Z,9.40
2018-01-10T09:36:05.882Z,9.50
2018-01-10T09:37:10.527Z,9.60
2018-01-10T09:38:15.176Z,9.60
2018-01-10T09:39:19.819Z,9.60
2018-01-10T09:40:24.745Z,9.50
2018-01-10T09:41:29.591Z,9.50
2018-01-10T09:42:34.231Z,9.50
2018-01-10T09:43:38.896Z,9.50
2018-01-10T09:44:43.484Z,9.60
2018-01-10T09:45:48.438Z,9.60
2018-01-10T09:46:53.154Z,9.70
2018-01-10T09:47:57.846Z,9.70
2018-01-10T09:49:02.466Z,9.70
2018-01-10T09:50:07.161Z,9.80
2018-01-10T09:51:12.625Z,9.80
2018-01-10T09:52:18.080Z,9.90
2018-01-10T09:53:22.741Z,9.90
2018-01-10T09:54:28.202Z,10.10
2018-01-10T09:55:32.876Z,10.10
2018-01-10T09:56:37.734Z,10.20
2018-01-10T09:57:42.430Z,10.30
2018-01-10T09:58:47.798Z,10.40
2018-01-10T09:59:52.388Z,10.40
2018-01-10T10:00:57.855Z,11.00
2018-01-10T10:02:03.093Z,11.00
2018-01-10T10:03:07.723Z,11.20
2018-01-10T10:04:12.430Z,11.20
2018-01-10T10:05:17.076Z,11.30
2018-01-10T10:06:22.501Z,11.30
2018-01-10T10:07:27.157Z,11.30
2018-01-10T10:08:31.831Z,11.20
2018-01-10T10:09:36.490Z,11.20
2018-01-10T10:10:41.133Z,11.20
2018-01-10T10:11:46.084Z,11.10
2018-01-10T10:12:51.745Z,10.80
2018-01-10T10:13:57.242Z,10.80
2018-01-10T10:15:01.928Z,10.80
2018-01-10T10:16:06.600Z,10.80
2018-01-10T10:17:11.251Z,10.80
2018-01-10T10:18:15.906Z,10.90
2018-01-10T10:19:20.576Z,11.00
2018-01-10T10:20:25.254Z,11.00
2018-01-10T10:21:30.685Z,11.10
2018-01-10T10:22:35.404Z,11.10
2018-01-10T10:23:40.111Z,11.10
2018-01-10T10:24:44.738Z,11.20
2018-01-10T10:25:49.297Z,11.30
2018-01-10T10:26:54.148Z,11.40
2018-01-10T10:27:58.928Z,11.50
2018-01-10T10:29:03.553Z,11.60
2018-01-10T10:30:08.146Z,11.60
2018-01-10T10:31:13.032Z,11.70
2018-01-10T10:32:17.664Z,11.80
2018-01-10T10:33:23.161Z,12.10
2018-01-10T10:34:27.877Z,12.10
2018-01-10T10:35:32.578Z,12.00
2018-01-10T10:36:37.237Z,12.10
2018-01-10T10:37:42.693Z,12.20
2018-01-10T10:39:50.813Z,12.30
2018-01-10T10:40:55.985Z,12.30
2018-01-10T10:42:00.564Z,12.50
2018-01-10T10:43:05.276Z,12.50
2018-01-10T10:44:09.891Z,12.50
2018-01-10T10:45:14.737Z,12.40
2018-01-10T10:46:19.356Z,12.30
2018-01-10T10:47:24.303Z,12.10
2018-01-10T10:48:29.712Z,12.00
2018-01-10T10:49:34.303Z,12.00
2018-01-10T10:50:39.371Z,11.90
2018-01-10T10:51:44.046Z,11.90
2018-01-10T10:52:48.775Z,11.80
2018-01-10T10:53:53.497Z,11.80
2018-01-10T10:54:58.094Z,11.80
2018-01-10T10:56:02.834Z,11.80
2018-01-10T10:57:07.586Z,11.80
2018-01-10T10:58:12.276Z,11.60
2018-01-10T10:59:16.980Z,11.40
2018-01-10T11:00:25.771Z,11.40
2018-01-10T11:01:30.636Z,11.40
2018-01-10T11:02:35.267Z,11.40
2018-01-10T11:03:41.167Z,11.40
2018-01-10T11:04:46.269Z,11.40
2018-01-10T11:05:51.044Z,11.30
2018-01-10T11:06:56.425Z,11.20
2018-01-10T11:08:01.136Z,11.10
2018-01-10T11:09:07.037Z,11.10
2018-01-10T11:10:12.195Z,11.10
2018-01-10T11:11:17.138Z,11.00
2018-01-10T11:12:21.765Z,11.10
2018-01-10T11:13:26.433Z,11.00
2018-01-10T11:14:32.207Z,11.00
2018-01-10T11:15:36.848Z,11.00
2018-01-10T11:16:41.688Z,11.00
2018-01-10T11:17:46.376Z,11.10
2018-01-10T11:18:51.189Z,11.00
2018-01-10T11:19:55.858Z,11.00
2018-01-10T11:21:01.401Z,11.00
2018-01-10T11:22:06.037Z,11.00
2018-01-10T11:23:10.645Z,11.00
2018-01-10T11:24:15.418Z,10.90
2018-01-10T11:25:20.068Z,10.90
2018-01-10T11:26:24.657Z,10.80
2018-01-10T11:27:30.077Z,10.60
2018-01-10T11:28:35.646Z,10.60
2018-01-10T11:29:40.215Z,10.50
2018-01-10T11:30:45.783Z,10.50
2018-01-10T11:31:51.239Z,10.60
2018-01-10T11:32:55.864Z,10.60
2018-01-10T11:34:00.841Z,10.60
2018-01-10T11:35:05.479Z,10.60
2018-01-10T11:36:10.912Z,10.50
2018-01-10T11:37:16.691Z,10.50
2018-01-10T11:38:22.114Z,10.40
2018-01-10T11:39:26.730Z,10.40
2018-01-10T11:40:32.182Z,10.40
2018-01-10T11:41:37.175Z,10.40
2018-01-10T11:42:41.862Z,10.40
2018-01-10T11:43:47.384Z,10.50
2018-01-10T11:44:52.035Z,10.50
2018-01-10T11:45:56.984Z,10.60
2018-01-10T11:47:01.938Z,10.60
2018-01-10T11:48:06.586Z,10.60
2018-01-10T11:49:11.427Z,10.60
2018-01-10T11:50:16.185Z,10.60
2018-01-10T11:51:20.841Z,10.60
2018-01-10T11:52:26.284Z,10.60
2018-01-10T11:53:31.006Z,10.60
2018-01-10T11:54:35.679Z,10.60
2018-01-10T11:55:40.350Z,10.50
2018-01-10T11:56:45.165Z,10.50
2018-01-10T11:57:49.817Z,10.50
2018-01-10T11:58:54.523Z,10.60
2018-01-10T11:59:59.289Z,10.60
2018-01-10T12:01:04.009Z,10.60
2018-01-10T12:02:09.373Z,10.70
2018-01-10T12:03:14.056Z,10.70
2018-01-10T12:04:19.809Z,10.70
2018-01-10T12:05:24.488Z,10.60
2018-01-10T12:06:30.111Z,10.80
2018-01-10T12:07:35.109Z,10.80
2018-01-10T12:08:39.965Z,10.80
2018-01-10T12:09:44.618Z,10.80
2018-01-10T12:10:49.645Z,10.90
2018-01-10T12:11:54.224Z,10.90
2018-01-10T12:12:59.644Z,10.90
2018-01-10T12:14:04.260Z,10.90
2018-01-10T12:15:09.405Z,10.90
2018-01-10T12:16:15.399Z,10.90
2018-01-10T12:17:20.144Z,11.00
2018-01-10T12:18:26.230Z,10.90
2018-01-10T12:19:33.382Z,10.90
2018-01-10T12:20:41.054Z,10.90
2018-01-10T12:21:46.700Z,10.90
2018-01-10T12:22:51.485Z,10.80
2018-01-10T12:23:56.388Z,10.80
2018-01-10T12:25:01.707Z,10.80
2018-01-10T12:26:06.668Z,10.80
2018-01-10T12:27:11.294Z,10.80
2018-01-10T12:28:20.087Z,10.90
2018-01-10T12:29:24.796Z,10.90
2018-01-10T12:30:29.869Z,11.00
2018-01-10T12:31:35.094Z,11.00
2018-01-10T12:32:39.813Z,11.00
2018-01-10T12:33:45.370Z,11.10
2018-01-10T12:34:50.937Z,11.10
2018-01-10T12:35:55.796Z,11.00
2018-01-10T12:37:00.704Z,11.00
2018-01-10T12:38:05.557Z,11.00
2018-01-10T12:39:10.416Z,10.90
2018-01-10T12:40:15.869Z,10.90
2018-01-10T12:41:20.601Z,10.90
2018-01-10T12:42:25.230Z,10.90
2018-01-10T12:43:30.351Z,10.90
2018-01-10T12:44:36.060Z,10.90
2018-01-10T12:45:40.875Z,11.00
2018-01-10T12:46:45.635Z,11.00
2018-01-10T12:47:50.296Z,11.10
2018-01-10T12:48:54.976Z,11.00
2018-01-10T12:49:59.601Z,11.10
2018-01-10T12:51:05.046Z,11.30
2018-01-10T12:52:10.579Z,11.30
2018-01-10T12:53:16.148Z,11.40
2018-01-10T12:54:20.780Z,11.30
2018-01-10T12:55:25.581Z,11.40
2018-01-10T12:56:30.186Z,11.40
2018-01-10T12:57:34.904Z,11.40
2018-01-10T12:58:40.400Z,11.50
2018-01-10T12:59:48.472Z,11.60
2018-01-10T13:00:53.559Z,11.60
2018-01-10T13:01:58.245Z,11.60
2018-01-10T13:03:03.718Z,11.70
2018-01-10T13:04:08.394Z,11.70
2018-01-10T13:05:13.087Z,11.80
2018-01-10T13:06:18.069Z,11.80
2018-01-10T13:07:22.691Z,11.80
2018-01-10T13:08:27.400Z,11.70
2018-01-10T13:09:32.147Z,11.80
2018-01-10T13:10:36.841Z,11.80
2018-01-10T13:11:41.850Z,11.80
2018-01-10T13:12:46.498Z,11.80
2018-01-10T13:13:51.109Z,11.70
2018-01-10T13:14:55.977Z,11.80
2018-01-10T13:16:01.396Z,11.80
2018-01-10T13:17:06.940Z,11.80
2018-01-10T13:18:12.348Z,11.80
2018-01-10T13:19:17.176Z,11.80
2018-01-10T13:20:21.910Z,11.80
2018-01-10T13:21:27.318Z,11.90
2018-01-10T13:22:32.077Z,11.90
2018-01-10T13:23:36.860Z,11.90
2018-01-10T13:24:41.632Z,12.00
2018-01-10T13:25:46.316Z,12.00
2018-01-10T13:26:51.888Z,12.20
2018-01-10T13:27:56.981Z,12.20
2018-01-10T13:29:02.305Z,12.40
2018-01-10T13:30:07.887Z,12.50
2018-01-10T13:31:12.602Z,12.40
2018-01-10T13:32:17.277Z,12.50
2018-01-10T13:33:22.737Z,12.80
2018-01-10T13:34:27.453Z,12.80
2018-01-10T13:35:32.192Z,12.90
2018-01-10T13:36:36.869Z,13.00
2018-01-10T13:37:42.356Z,13.10
2018-01-10T13:38:47.019Z,13.10
2018-01-10T13:39:52.493Z,13.10
2018-01-10T13:40:57.275Z,13.10
2018-01-10T13:42:02.694Z,13.00
2018-01-10T13:43:08.167Z,12.90
2018-01-10T13:44:12.964Z,12.80
2018-01-10T13:45:18.696Z,12.40
2018-01-10T13:46:24.098Z,12.30
2018-01-10T13:47:28.816Z,12.20
2018-01-10T13:48:33.586Z,12.10
2018-01-10T13:49:38.200Z,12.00
2018-01-10T13:50:43.022Z,11.90
2018-01-10T13:51:47.755Z,11.80
2018-01-10T13:53:04.196Z,11.80
2018-01-10T13:54:09.625Z,11.60
2018-01-10T13:55:15.063Z,11.50
2018-01-10T13:56:20.869Z,11.50
2018-01-10T13:57:25.476Z,11.50
2018-01-10T13:58:30.110Z,11.40
2018-01-10T13:59:36.024Z,11.40
2018-01-10T14:00:40.697Z,11.40
2018-01-10T14:01:46.139Z,11.30
2018-01-10T14:02:51.596Z,11.30
2018-01-10T14:03:56.307Z,11.30
2018-01-10T14:05:00.999Z,11.30
2018-01-10T14:06:06.399Z,11.30
2018-01-10T14:07:11.558Z,11.30
2018-01-10T14:08:16.962Z,11.30
2018-01-10T14:09:21.580Z,11.30
2018-01-10T14:10:26.285Z,11.30
2018-01-10T14:11:30.924Z,11.30
2018-01-10T14:12:35.889Z,11.30
2018-01-10T14:13:40.581Z,11.30
2018-01-10T14:14:45.996Z,11.30
2018-01-10T14:15:50.650Z,11.30
2018-01-10T14:16:55.300Z,11.30
2018-01-10T14:17:59.973Z,11.30
2018-01-10T14:19:04.721Z,11.30
2018-01-10T14:20:09.485Z,11.30